Back to race calendar - Vets, teams and statistics - Printer friendly results

Standish Hall Trail Race, nr. Wigan

28th February 2009

(This is a sortable table - click column heading)
Filter (choose one only!)
Name:
Cat: Club:
PosNumMFNameCatCatPosClubTime
1460001 Adam PeersM(001/070)Liverpool Harriers00:35:03
2476002 Andy ButteryM(002/070)Rossendale Harriers00:35:49
3457003 Charlie PassM(003/070)Wesham Road Runners00:36:13
4372004 Jonathan FergusonM(004/070)Rossendale Harriers00:36:34
552005 Colin RigbyM40(001/033)Horwich RMI Harriers00:36:45
6461006 Rob DewhurstM(005/070)Liverpool Harriers00:36:56
7434 001Lauren HowarthFJ(001/003)Leigh Harriers & AC00:37:04
895007 Alan AshtonM(006/070)Liverpool Harriers00:37:12
9370008 Luke HarreldM(007/070)Bury AC00:37:13
10439009 Tommy HendersM(008/070)Leigh Harriers & AC00:37:44
11431010 Glen GrovesM40(002/033)Liverpool Harriers00:38:12
12480011 Rob AshworthM40(003/033)Southport Waterloo00:38:25
1371012 James HiltonM(009/070)Wigan Phoenix00:38:31
14329013 Martin FarranM45(001/028)Leeds City AC00:38:35
153936014 Adrian TimminsM(010/070)Warrington AC00:38:39
16333015 Mike HattonM45(002/028)South Cheshire Harriers00:38:46
17479016 Stephen NichollsM(011/070)Wigan Phoenix00:39:06
18484017 Ian SelbyM40(004/033)Bolton United Harriers00:39:14
1955018 Paul WathanM(012/070)Eryri Harriers00:39:28
20458019 Alex UrmstonM(013/070)Leigh Harriers & AC00:39:30
21473020 Sean MolloyM40(005/033)Rossendale Harriers00:39:33
2264021 Andy EcclesM45(003/028)Wigan Phoenix00:39:34
23475022 Richard BakerM(014/070)South Cheshire Harriers00:39:39
243931023 Stephen MorranM50(001/023)Northern Vets AC00:39:42
25432024 Robert McGrathM40(006/033)Southport Waterloo00:39:46
263902025 Peter RoomeM40(007/033)Southport Waterloo00:39:50
2754026 Denis MasonM(015/070)Horwich RMI Harriers00:40:01
283924027 Paul HarrisonM(016/070)Liverpool Harriers00:40:02
29435028 John HowarthM45(004/028)Leigh Harriers & AC00:40:22
30334029 James SmithM(017/070)Unattached00:40:51
3168030 Craig MannM40(008/033)Greater Manchester Police00:40:56
3262031 John SpracklandM45(005/028)Southport Waterloo00:40:57
333922032 John MorrisseyM(018/070)Wigan Phoenix00:41:00
34375033 Rick BowkerM45(006/028)Southport Waterloo00:41:10
353948034 Neil AllenM(019/070)Unattached00:41:22
3666035 James CookeM45(007/028)Leigh Harriers & AC00:41:30
3758036 Stephen EdwardsM(020/070)TRACC u/a00:41:33
383917037 Jim CrehanM55(001/008)St Helens & Sutton00:41:34
39478038 Dave WaddingtonM45(008/028)Wigan Phoenix00:41:35
40488039 Doug FlemingM45(009/028)Horwich RMI Harriers00:41:37
41438040 Paul BoardmanM45(010/028)Horwich RMI Harriers00:41:39
42459041 Allister GouldingM(021/070)Leigh Harriers & AC00:41:40
43485042 Phil IddonM(022/070)Chorley Harriers00:41:40
4491043 Darren HornerM(023/070)Keighley & Craven AC00:41:57
45487044 Richard CaryM40(009/033)Southport Waterloo00:42:06
463916045 J. BurkeM(024/070)Unattached00:42:41
47358046 Owen BurnsM(025/070)Mossley Hill AC00:42:49
48464047 Ray HandleyM50(002/023)Southport Waterloo00:43:14
4984048 Paul SeddonM(026/070)Wigan Phoenix00:43:20
50491049 Russ DerbyshireM50(003/023)Salford Harriers & AC00:43:28
51374050 James SimpsonM(027/070)South Cheshire Harriers00:43:33
5279051 Barry AbramM45(011/028)Wigan Phoenix00:43:37
53343052 Colin SweatmanM(028/070)Unattached00:44:02
543918053 A. HudsonM45(012/028)Southport Waterloo00:44:13
55492054 Steve ColemanM45(013/028)Astley & Tyldesley RC00:44:20
563953055 Dave GroombridgeM40(010/033)Unattached00:44:23
573941056 Chris HattonM(029/070)Unattached00:44:31
58373057 Paul CainM40(011/033)Southport Waterloo00:44:36
5992058 Ken FowlerM55(002/008)Bolton United Harriers00:44:47
60495059 Chris WhitlockM40(012/033)Wesham Road Runners00:44:52
6118060 Mark RocheM(030/070)Unattached00:44:52
6253061 Steve JacksonM50(004/023)Horwich RMI Harriers00:44:57
6382 002Rachel MooreF(001/012)Wigan Phoenix00:44:57
643910062 Paul WareingM45(014/028)Chorley AC00:45:01
6597063 Billy HargreavesM60(001/013)Liverpool Harriers00:45:04
66447064 Michael WhitesideM60(002/013)Tattenhall Runners00:45:30
6789 003Michelle MurphyF40(001/012)Liverpool Harriers00:45:30
6898 004Marina AliF35(001/006)Liverpool Harriers00:45:30
6988065 Peter SingletonM50(005/023)Blackpool Wyre & Fylde AC00:45:34
70322 005Janet HattonF40(002/012)Macclesfield Harriers00:45:39
71389066 John FouldsM45(015/028)Astley & Tyldesley RC00:45:52
72348067 Tommy BurkeM60(003/013)Penny Lane Striders00:46:11
73357068 Jamie MartinezM(031/070)Army00:46:18
7457069 Ciaran GarsideM(032/070)Sale Harriers Manchester00:46:20
75455070 Graham InghamM40(013/033)Preston Harriers00:46:26
76489071 Andrew NightingaleM(033/070)Wigan Phoenix00:46:29
773927072 Steve HollisM50(006/023)Road Runners Club GB00:46:32
7872 006Lesley FisherF50(001/002)Burnden Road Runners00:46:36
79371073 Philip DavidsonM45(016/028)Preston Harriers00:46:37
80388074 Simon TobinM40(014/033)Southport Waterloo00:46:41
8122075 Jonathan ClarkeM40(015/033)Glossopdale Harriers00:46:44
8283076 John BoothM55(003/008)South Cheshire Harriers00:46:48
8399 007Sarah JacksonF(002/012)Liverpool Harriers00:46:58
843913077 Rick CordwellM(034/070)Chorley AC00:47:01
85490078 Chris NightingaleM40(016/033)Wigan Phoenix00:47:03
86437079 Pete BlandM60(004/013)Horwich RMI Harriers00:47:12
87436080 Keith TyrerM55(004/008)Horwich RMI Harriers00:47:13
883909 008Bethan FaulknerFJ(002/003)Horwich RMI Harriers00:47:19
89498081 A. BleasdaleM50(007/023)Unattached00:47:20
903947082 Chris MullenM(035/070)Rochdale Harriers00:47:33
91462083 John HillmanM(036/070)Unattached00:47:39
923950084 D. MarsdenM(037/070)Unattached00:47:52
938085 Ellis ClarkeM(038/070)Unattached00:48:00
94386086 David SmithM(039/070)Unattached00:48:04
9585087 Andy HowarthM40(017/033)Leigh Harriers & AC00:48:16
963911088 Francis SlavinM55(005/008)Northern Vets AC00:48:27
9735 009Briony TabyF35(002/006)Mossley Hill AC00:48:29
983914089 Steve PembertonM50(008/023)Penny Lane Striders00:48:40
99467090 Andrew WallM(040/070)Unattached00:48:41
1003930091 Graham SchofieldM55(006/008)Chorley Harriers00:48:42
101354092 Keith WalshM50(009/023)Unattached00:48:42
102486093 Phil LakelandM50(010/023)Preston Harriers00:48:53
103353094 David CapenerM45(017/028)Unattached00:48:57
104481 010Sarah SherrattF35(003/006)Wesham Road Runners00:49:03
105332095 Richard CookM40(018/033)Unattached00:49:07
106427096 Stephen WhincupM45(018/028)South Cheshire Harriers00:49:09
107356097 Michael McKrellM45(019/028)Unattached00:49:11
108319098 David HigginsM40(019/033)Unattached00:49:12
10956 011Gemma MorgansFJ(003/003)Eryri Harriers00:49:14
110426099 Ian HughesM(041/070)Unattached00:49:14
1113919 012Vicki HarveyF40(003/012)Southport Waterloo00:49:16
112468100 Sam ScottM(042/070)Liverpool Harriers00:49:23
113391 013Sharon WilliamsF45(001/008)Abbey Runners00:49:27
1143935 014Jan NichollsF35(004/006)Sale Harriers Manchester00:49:34
115390 015Victoria DavisonF(003/012)Chorley Harriers00:49:36
116494101 Tom TempleM55(007/008)Middleton Harriers00:49:41
11796 016Charlotte WilsonF(004/012)Liverpool Harriers00:49:43
1183951102 S. MaughanM40(020/033)Unattached00:49:47
119466103 Paul BerryM(043/070)Unattached00:49:52
1203942104 David StonehouseM(044/070)Skelmersdale Boundary Har00:49:53
1213907105 Michael LisleM50(011/023)Mersey Tri00:49:59
1223956106 Ian MurphyM45(020/028)Tri Preston00:50:08
12381 017Kath HoyerF45(002/008)Wesham Road Runners00:50:10
1243925107 Steve LyonsM40(021/033)Unattached00:50:22
1253912108 Jonathan PetersM(045/070)Unattached00:50:23
1263921 018Andrea MuirheadF(005/012)Unattached00:50:26
127378109 Barry AllmanM50(012/023)Horwich RMI Harriers00:50:39
128383110 David DysonM50(013/023)Blackpool Wyre & Fylde AC00:50:54
1293915111 Scott CreerMJ(001/005)Unattached00:50:56
13087112 Mark EmmettM50(014/023)Radcliffe AC00:50:58
13194113 Henry MinorczykM60(005/013)Chorley AC00:51:00
13269114 John SharplesM50(015/023)Wesham Road Runners00:51:06
133493115 Dennis MoranM60(006/013)Salford Harriers & AC00:51:19
134429116 Mark FernsM45(021/028)Sale Harriers Manchester00:51:23
135338117 Deane LambM(046/070)Unattached00:51:30
136499118 Simon O'LearyM(047/070)Unattached00:51:33
137454119 Adrian DensonM(048/070)Unattached00:51:38
138451120 Matthew HeapM(049/070)Unattached00:51:43
139339121 John FrieryM(050/070)Unattached00:51:44
14065122 Jim CosgroveM50(016/023)Chorley AC00:51:48
1413939123 Patrick MelvinM(051/070)Mossley Pikers00:51:49
142483124 Bob TowellM65(001/005)Salford Harriers & AC00:51:52
143360125 Ross MoughtinM60(007/013)Achilles Ratti00:52:04
144482126 Jim CollinsM40(022/033)Unattached00:52:16
145326 019Elspeth MacPhersonF60(001/002)Lytham St Annes RR00:52:21
146396127 Des MilesM40(023/033)Unattached00:52:23
1473938128 Michael McCarthyM(052/070)Unattached00:52:41
148331129 Alan AppletonM50(017/023)Unattached00:52:47
149387130 Martin Francis WalshM60(008/013)Lytham St Annes RR00:52:50
15075 020Jenny SaltF(006/012)Wesham Road Runners00:52:54
1513926131 Mark DanamerM(053/070)Unattached00:52:57
152453132 Ben PriestleyM(054/070)Unattached00:53:05
153317133 Graham PrestonM40(024/033)Unattached00:53:12
154430134 Mark FosterM(055/070)Unattached00:53:22
155428135 Richard MooreM(056/070)Unattached00:53:29
156398136 Gary BradleyM(057/070)Unattached00:53:34
15786137 A. SmartM50(018/023)Blackpool Wyre & Fylde AC00:53:35
158463 021Carol HandleyF50(002/002)Southport Waterloo00:53:44
15974 022Bernadette DickinsonF45(003/008)Wesham Road Runners00:54:01
160452138 Gregory PatonM45(022/028)Unattached00:54:16
16177139 Dean PrestonMJ(002/005)Unattached00:54:21
162449 023Claire BursnollF35(005/006)Spectrum Striders00:54:25
1633934140 P. SummersM45(023/028)Unattached00:54:34
1643952 024Wendy AtkinsonF(007/012)Unattached00:54:38
165320141 Philip ButterworthM45(024/028)Unattached00:55:08
16680142 David ColeiroM(058/070)Unattached00:55:10
16767143 Peter CookeM45(025/028)Wesham Road Runners00:55:17
16893144 Patrick HenleyM60(009/013)Liverpool Harriers00:55:21
169420145 James OuttersideM(059/070)Unattached00:55:28
170433146 Dave WoodM45(026/028)Manchester Harriers00:55:34
171316147 Stephen BaileyM(060/070)Unattached00:55:36
172340148 Peter BrocklebankM(061/070)Unattached00:55:37
173394149 Danny WilliamsM(062/070)Unattached00:55:46
17421 025Carol JamesF40(004/012)Southport Waterloo00:55:53
175397150 Andy LythgoeM(063/070)Unattached00:56:05
176395151 Lee BoyleM(064/070)Unattached00:56:08
1773940152 Martin BainesM40(025/033)Unattached00:56:24
17878153 Bruce WatmoreM40(026/033)Unattached00:56:28
1793908154 Mike CutlerM50(019/023)South Cheshire Harriers00:56:35
1803901155 Paul McAllisterM40(027/033)Lytham St Annes RR00:56:41
181448156 Richard BursnollM40(028/033)Unattached00:56:45
1823945157 Edward HowardM50(020/023)Unattached00:56:50
183422158 Alan BartonM(065/070)Unattached00:57:01
184474159 Ben GaskellM50(021/023)Unattached00:57:15
1853933160 David WilliamsonM40(029/033)Unattached00:57:17
186469161 Paul BridgeM40(030/033)Unattached00:57:50
187497162 Howard HenshawM65(002/005)Blackpool Wyre & Fylde AC00:57:59
18851163 Keith DagnallM40(031/033)Unattached00:58:11
18950164 Adam BibbyMJ(003/005)Unattached00:58:11
1903954165 Carl HughesM(066/070)New World Road Runners00:58:21
191496166 Peter GelderdM60(010/013)Garstang Running Club00:58:22
1923937167 Jon TimminsM(067/070)Unattached00:58:22
19390 026Fiona PudgeF40(005/012)Keighley & Craven AC00:58:27
19476 027Gillian CsizmadiaF45(004/008)Wrexham AC00:58:29
19570 028Kerry EcclesF45(005/008)Wesham Road Runners00:58:32
196421 029Helen Katherine RossF(008/012)Unattached00:58:43
1973923168 Roger HarrisonM55(008/008)Liverpool Harriers00:58:55
198450169 Matthew DixonM40(032/033)Unattached00:58:55
1993920170 Sean FoxM60(011/013)Unattached00:58:56
2003932 030Gay LearyF55(001/002)Halifax Harriers00:58:59
2013905171 Norman GreenwoodM65(003/005)Blackpool Wyre & Fylde AC00:59:06
202477172 Alan BurnsM65(004/005)Wigan Phoenix00:59:21
2033944173 Michael MurrayM50(022/023)Chorley AC00:59:29
204385174 Barry GermanM45(027/028)Unattached00:59:54
205456 031Mandy InghamF40(006/012)Preston Harriers01:00:02
206471 032Anne ConchieF40(007/012)Unattached01:00:11
207361175 Michael WhiteM(068/070)Unattached01:00:24
208425 033Elaine PardoeF40(008/012)Unattached01:00:33
2093906176 Malcolm TowlerM65(005/005)Northern Vets AC01:00:55
210359177 Paul WorrallM(069/070)Unattached01:01:02
211465178 Paul MakinM40(033/033)Unattached01:01:06
2123929 034Sue ExonF55(002/002)Trafford AC01:01:13
213399 035Joanna OuttersideF(009/012)Unattached01:01:16
214318 036Lorna FewtrellF40(009/012)South Cheshire Harriers01:01:28
21563 037Pamela HardmanF45(006/008)Lytham St Annes RR01:01:30
216472179 Richard HoughtonM45(028/028)Unattached01:02:03
217393180 Conrad SlaterM70(001/002)Kendal AC01:02:38
218382181 Chris StanleyM(070/070)Unattached01:04:02
21959 038Janet LeightonF40(010/012)TRACC u/a01:04:30
220337182 Richard WestcottM50(023/023)TRACC u/a01:04:31
2213943 039Ann OliverF65(001/001)Burnden Road Runners01:05:05
222100183 Mike CoppinM60(012/013)Chorley AC01:08:07
223327184 Jordan ShandleyMJ(004/005)Unattached01:08:32
224328 040Gillian ShandleyF40(011/012)Unattached01:08:32
2253903 041Sandie TaylorF40(012/012)Unattached01:09:16
2263904 042Vikki ParkerF(010/012)Unattached01:09:16
2273949185 Les PaulM60(013/013)Chorley AC01:09:46
228335 043Jeanette HattonF35(006/006)South Cheshire Harriers01:10:30
22961 044Karen SimsF(011/012)TRACC u/a01:11:39
23060 045Stef NicollF45(007/008)TRACC u/a01:11:43
231330186 Geoff HowarthM70(002/002)Northern Vets AC01:11:52
2323928 046Dot CarrF60(002/002)Unattached01:12:27
233346187 Jonathan WalmsleyMJ(005/005)Unattached01:13:27
2343946 047Anne LomaxF45(008/008)Unattached01:14:14
235470 048Jackie BallardF(012/012)Unattached01:14:57

Copyright © 2009 John Schofield. Unauthorised copying prohibited
Back to race calendar - Top of page - Vets, teams and statistics